Latest Weather Observations for Dennes Point

IDT60801

Issued at 5:35 pm EDT Sunday 26 October 2014 (issued every 30 minutes, with the page automatically refreshed every 10 minutes)

About weather observations | Map of weather stations | Latest weather observations for TAS | Other Formats
Station Details ID: 094255 Name: DENNES POINT Lat: -43.06 Lon: 147.36 Height: 5.67 m
Data from the previous 72 hours. | See also: Recent months at Dennes Point
Date/Time
EDT
Temp
°C
App
Temp
°C
Dew
Point
Rel
Hum
%
Delta-T
°C
Wind Press
QNH
hPa
Press
MSL
hPa
Rain
since 9 am
mm
Dir
 
Spd
km/h
Gust
km/h
Spd
kts
Gust
kts
26/05:30pm 13.5 8.8 10.7 83 1.5 ENE 26 32 14 17 1010.6 1010.6 0.2
26/05:00pm 13.5 8.8 10.7 83 1.5 NE 26 32 14 17 1011.0 1011.0 0.2
26/04:30pm 13.7 9.1 10.9 83 1.5 NE 26 30 14 16 1011.2 1011.2 0.2
26/04:00pm 13.7 9.8 10.7 82 1.6 NE 22 28 12 15 1011.6 1011.6 0.2
26/03:30pm 13.3 8.5 10.3 82 1.6 NE 26 32 14 17 1012.1 1012.1 0.2
26/03:00pm 12.9 7.7 10.1 83 1.4 NE 28 33 15 18 1012.8 1012.8 0.2
26/02:30pm 12.8 8.0 10.3 85 1.3 ENE 26 32 14 17 1012.9 1012.9 0.2
26/02:00pm 12.5 7.3 10.4 87 1.1 ENE 28 33 15 18 1013.2 1013.2 0.2
26/01:30pm 12.5 7.4 10.6 88 1.0 ENE 28 35 15 19 1013.7 1013.7 0.2
26/01:00pm 12.0 7.5 10.2 89 0.9 ENE 24 30 13 16 1013.9 1013.9 0.2
26/12:30pm 11.9 7.4 10.0 88 1.0 NE 24 33 13 18 1014.2 1014.2 0.2
26/12:00pm 11.6 7.4 9.9 89 0.9 NE 22 28 12 15 1014.7 1014.7 0.2
26/11:30am 11.6 8.1 10.3 92 0.7 NE 19 24 10 13 1014.8 1014.8 0.2
26/11:00am 11.6 7.9 10.0 90 0.8 NE 20 28 11 15 1014.9 1014.9 0.2
26/10:30am 11.1 9.9 10.2 94 0.5 ENE 7 13 4 7 1015.1 1015.1 0.2
26/10:00am 10.7 9.4 9.8 94 0.5 E 7 11 4 6 1015.2 1015.2 0.0
26/09:30am 10.9 9.6 10.0 94 0.5 E 7 7 4 4 1015.1 1015.1 0.0
26/09:00am 10.6 9.4 9.4 92 0.6 NE 6 7 3 4 1015.3 1015.3 1.4
26/08:30am 10.4 9.5 9.2 92 0.6 ENE 4 6 2 3 1015.4 1015.4 1.4
26/08:00am 10.1 8.6 9.0 93 0.5 E 7 9 4 5 1015.4 1015.4 1.2
26/07:30am 10.2 8.8 9.4 95 0.4 ESE 7 11 4 6 1015.4 1015.4 1.2
26/07:00am 9.8 8.2 8.9 94 0.4 ESE 7 15 4 8 1015.4 1015.4 1.0
26/06:30am 9.6 8.2 8.8 95 0.4 SE 6 9 3 5 1015.6 1015.6 1.0
26/06:00am 9.6 8.0 8.8 95 0.4 ESE 7 13 4 7 1015.5 1015.5 1.0
26/05:30am 9.5 6.7 8.7 95 0.4 ESE 13 17 7 9 1015.4 1015.4 1.0
26/05:00am 9.3 7.3 8.5 95 0.4 ESE 9 15 5 8 1015.4 1015.4 0.8
26/04:30am 9.5 7.9 8.7 95 0.4 ESE 7 11 4 6 1015.6 1015.6 0.8
26/04:00am 9.4 8.3 8.5 94 0.4 ESE 4 7 2 4 1015.9 1015.9 0.8
26/03:30am 9.6 8.2 8.7 94 0.4 E 6 9 3 5 1016.0 1016.0 0.6
26/03:00am 9.6 7.6 8.5 93 0.5 E 9 13 5 7 1016.0 1016.0 0.0
26/02:30am 9.8 8.0 8.1 89 0.8 ENE 7 11 4 6 1016.4 1016.4 0.0
26/02:00am 10.1 9.2 7.7 85 1.1 NE 2 7 1 4 1016.7 1016.7 0.0
26/01:30am 10.1 7.9 7.7 85 1.2 NE 9 11 5 6 1017.0 1017.0 0.0
26/01:00am 10.4 8.3 8.2 86 1.1 NE 9 11 5 6 1017.4 1017.4 0.0
26/12:30am 10.5 8.2 7.6 82 1.4 ENE 9 11 5 6 1018.2 1018.2 0.0
26/12:00am 10.4 8.6 7.3 81 1.5 E 6 9 3 5 1018.0 1018.0 0.0
 
Date/Time
EDT
Temp
°C
App
Temp
°C
Dew
Point
Rel
Hum
%
Delta-T
°C
Wind Press
QNH
hPa
Press
MSL
hPa
Rain
since 9 am
mm
Dir
 
Spd
km/h
Gust
km/h
Spd
kts
Gust
kts
25/11:30pm 11.2 9.2 6.3 72 2.3 SE 6 13 3 7 1018.2 1018.2 0.0
25/11:00pm 11.2 8.6 6.3 72 2.3 E 9 13 5 7 1017.9 1017.9 0.0
25/10:30pm 11.3 8.4 6.4 72 2.3 E 11 15 6 8 1017.8 1017.8 0.0
25/10:00pm 11.0 8.8 6.0 71 2.3 SE 7 11 4 6 1018.4 1018.4 0.0
25/09:30pm 11.1 8.5 6.0 71 2.4 ESE 9 22 5 12 1018.5 1018.5 0.0
25/09:00pm 11.4 8.0 6.1 70 2.5 ESE 13 19 7 10 1018.3 1018.3 0.0
25/08:30pm 11.3 9.2 5.8 69 2.6 SSE 6 7 3 4 1018.1 1018.1 0.0
25/08:00pm 11.4 9.1 5.9 69 2.6 SSE 7 13 4 7 1017.9 1017.9 0.0
25/07:30pm 11.5 8.8 5.8 68 2.6 SSE 9 13 5 7 1017.8 1017.8 0.0
25/07:00pm 11.6 8.7 6.3 70 2.5 SSE 11 19 6 10 1017.7 1017.7 0.0
25/06:30pm 11.8 8.9 6.3 69 2.6 SE 11 20 6 11 1017.7 1017.7 0.0
25/06:00pm 12.3 8.4 7.0 70 2.5 SE 17 26 9 14 1017.3 1017.3 0.0
25/05:30pm 12.4 8.4 6.7 68 2.7 SE 17 26 9 14 1016.8 1016.8 0.0
25/05:00pm 12.7 7.9 7.2 69 2.7 ESE 22 32 12 17 1016.5 1016.5 0.0
25/04:30pm 12.7 7.9 7.4 70 2.6 ESE 22 35 12 19 1016.6 1016.6 0.0
25/04:00pm 13.3 8.2 7.7 69 2.7 ESE 24 35 13 19 1016.3 1016.3 0.0
25/03:30pm 14.4 9.9 8.6 68 2.9 ESE 22 32 12 17 1016.3 1016.3 0.0
25/03:00pm 16.3 13.9 8.8 61 3.8 S 11 24 6 13 1016.3 1016.3 0.0
25/02:30pm 16.2 13.1 8.9 62 3.7 SSE 15 28 8 15 1016.3 1016.3 0.0
25/02:00pm 16.8 14.1 9.0 60 4.0 S 13 20 7 11 1016.1 1016.1 0.0
25/01:30pm 17.8 14.0 9.7 59 4.3 S 20 37 11 20 1015.7 1015.7 0.0
25/01:00pm 17.9 13.4 8.7 55 4.7 S 22 33 12 18 1015.5 1015.5 0.0
25/12:30pm 18.6 14.2 8.8 53 5.1 S 22 32 12 17 1015.4 1015.4 0.0
25/12:00pm 17.7 14.5 8.3 54 4.8 SSW 15 24 8 13 1015.6 1015.6 0.0
25/11:30am 18.0 14.3 9.4 57 4.5 S 19 28 10 15 1015.6 1015.6 0.0
25/11:00am 17.6 15.0 9.2 58 4.4 S 13 20 7 11 1015.5 1015.5 0.0
25/10:30am 17.1 15.8 9.3 60 4.1 S 6 13 3 7 1015.6 1015.6 0.0
25/10:00am 16.3 14.6 9.9 66 3.3 S 9 19 5 10 1015.4 1015.4 0.0
25/09:30am 16.0 13.8 9.4 65 3.4 S 11 17 6 9 1015.1 1015.1 0.0
25/09:00am 15.4 12.1 9.5 68 3.0 S 17 26 9 14 1015.0 1015.0 0.0
25/08:30am 14.9 11.7 9.9 72 2.6 S 17 26 9 14 1014.7 1014.7 0.0
25/08:00am 14.1 10.3 9.9 76 2.2 S 20 30 11 16 1014.3 1014.3 0.0
25/07:30am 13.0 9.1 9.6 80 1.7 S 20 30 11 16 1014.0 1014.0 0.0
25/07:00am 12.8 8.6 9.8 82 1.5 S 22 35 12 19 1013.3 1013.3 0.0
25/06:30am 13.1 10.1 10.5 84 1.4 S 17 26 9 14 1012.7 1012.7 0.0
25/06:00am 13.4 10.4 10.8 84 1.4 S 17 24 9 13 1012.3 1012.3 0.0
25/05:30am 13.7 10.3 11.4 86 1.2 S 20 32 11 17 1011.7 1011.7 0.0
25/05:00am 14.1 13.0 11.8 86 1.2 SSW 9 15 5 8 1011.2 1011.2 0.0
25/04:30am 14.0 13.8 11.7 86 1.2 SW 4 7 2 4 1010.8 1010.8 0.0
25/04:00am 13.9 13.2 12.1 89 1.0 W 7 9 4 5 1010.4 1010.4 0.0
25/03:30am 13.3 13.8 11.5 89 1.0 CALM 0 0 0 0 1010.0 1010.0 0.0
25/03:00am 13.7 13.0 12.1 90 0.9 NNE 7 13 4 7 1009.6 1009.6 0.0
25/02:30am 13.4 14.0 11.8 90 0.9 CALM 0 4 0 2 1009.3 1009.3 0.0
25/02:00am 13.3 12.5 11.7 90 0.9 SW 7 7 4 4 1009.0 1009.0 0.0
25/01:30am 13.6 13.5 12.2 91 0.8 N 4 9 2 5 1008.6 1008.6 0.0
25/01:00am 13.6 13.2 12.3 92 0.7 ESE 6 9 3 5 1008.6 1008.6 0.0
25/12:30am 13.1 13.3 12.0 93 0.6 SSE 2 4 1 2 1008.9 1008.9 0.0
25/12:00am 13.0 12.8 11.9 93 0.6 SSW 4 6 2 3 1008.7 1008.7 0.0
 
Date/Time
EDT
Temp
°C
App
Temp
°C
Dew
Point
Rel
Hum
%
Delta-T
°C
Wind Press
QNH
hPa
Press
MSL
hPa
Rain
since 9 am
mm
Dir
 
Spd
km/h
Gust
km/h
Spd
kts
Gust
kts
24/11:30pm 13.5 12.9 12.4 93 0.6 SW 7 11 4 6 1008.7 1008.7 0.0
24/11:00pm 13.4 13.7 12.1 92 0.7 SSW 2 6 1 3 1008.6 1008.6 0.0
24/10:30pm 13.7 12.7 12.4 92 0.7 SW 9 17 5 9 1008.3 1008.3 0.0
24/10:00pm 14.5 14.2 12.7 89 1.0 ESE 6 7 3 4 1008.3 1008.3 0.0
24/09:30pm 14.3 14.5 12.9 91 0.8 NE 4 6 2 3 1008.4 1008.4 0.0
24/09:00pm 14.8 15.8 13.2 90 0.9 CALM 0 0 0 0 1008.2 1008.2 0.0
24/08:30pm 14.4 14.9 12.8 90 0.9 NW 2 4 1 2 1008.2 1008.2 0.0
24/08:00pm 15.1 13.3 13.3 89 1.0 NE 15 17 8 9 1007.8 1007.8 0.0
24/07:30pm 15.3 12.7 13.3 88 1.1 NE 19 20 10 11 1007.7 1007.7 0.0
24/07:00pm 15.5 12.9 13.3 87 1.2 ENE 19 22 10 12 1007.9 1007.9 0.0
24/06:30pm 15.8 12.3 13.3 85 1.4 NNE 24 30 13 16 1008.4 1008.4 0.0
24/06:00pm 16.1 12.9 13.2 83 1.6 NE 22 26 12 14 1009.0 1009.0 0.0
24/05:30pm 16.4 13.2 13.1 81 1.8 NE 22 30 12 16 1009.2 1009.2 0.0
24/05:00pm 17.1 13.1 13.0 77 2.3 NE 26 30 14 16 1009.3 1009.3 0.0
24/04:30pm 17.0 12.5 12.7 76 2.4 NE 28 33 15 18 1009.5 1009.5 0.0
24/04:00pm 17.3 13.5 12.4 73 2.7 NE 24 28 13 15 1010.2 1010.2 0.0
24/03:30pm 17.8 14.0 12.5 71 2.9 NE 24 28 13 15 1010.8 1010.8 0.0
24/03:00pm 17.7 14.3 12.6 72 2.8 NE 22 28 12 15 1011.4 1011.4 0.0
24/02:30pm 16.2 12.7 12.2 77 2.2 NE 22 26 12 14 1012.1 1012.1 0.0
24/02:00pm 15.8 12.2 12.0 78 2.1 NE 22 28 12 15 1012.6 1012.6 0.0
24/01:30pm 15.3 11.3 11.9 80 1.8 NE 24 30 13 16 1013.5 1013.5 0.0
24/01:00pm 15.0 9.7 11.4 79 1.9 NE 30 33 16 18 1014.2 1014.2 0.0
24/12:30pm 15.3 11.4 10.9 75 2.3 NNE 22 24 12 13 1014.7 1014.7 0.0
24/12:00pm 15.7 12.6 10.2 70 2.9 NNE 17 20 9 11 1015.5 1015.5 0.0
24/11:30am 14.1 10.8 9.5 74 2.4 NE 17 19 9 10 1016.3 1016.3 0.0
24/11:00am 13.8 9.7 8.8 72 2.5 N 20 24 11 13 1016.7 1016.7 0.0
24/10:30am 13.4 8.9 8.5 72 2.4 N 22 26 12 14 1017.3 1017.3 0.0
24/10:00am 12.9 7.5 7.8 71 2.5 N 26 32 14 17 1017.5 1017.5 0.0
24/09:30am 12.3 6.4 7.4 72 2.4 N 28 35 15 19 1018.1 1018.1 0.0
24/09:00am 12.1 5.5 7.8 75 2.1 N 32 37 17 20 1018.5 1018.5 0.0
24/08:30am 12.0 6.0 7.1 72 2.4 N 28 35 15 19 1019.3 1019.3 0.0
24/08:00am 11.5 5.5 7.0 74 2.1 N 28 33 15 18 1019.6 1019.6 0.0
24/07:30am 11.4 5.4 7.1 75 2.1 N 28 35 15 19 1020.0 1020.0 0.0
24/07:00am 10.8 5.5 6.7 76 1.9 N 24 30 13 16 1020.0 1020.0 0.0
24/06:30am 10.7 5.5 7.2 79 1.7 N 24 28 13 15 1020.3 1020.3 0.0
24/06:00am 10.8 5.5 6.7 76 1.9 N 24 30 13 16 1020.6 1020.6 0.0
24/05:30am 10.7 5.4 6.6 76 1.9 N 24 28 13 15 1020.9 1020.9 0.0
24/05:00am 10.5 5.1 6.3 75 2.0 N 24 28 13 15 1021.1 1021.1 0.0
24/04:30am 10.4 5.8 6.4 76 1.9 N 20 26 11 14 1021.5 1021.5 0.0
24/04:00am 10.4 5.4 6.5 77 1.8 NNE 22 26 12 14 1021.8 1021.8 0.0
24/03:30am 10.7 5.4 6.6 76 1.9 NNE 24 30 13 16 1022.4 1022.4 0.0
24/03:00am 10.4 4.9 6.0 74 2.0 N 24 28 13 15 1022.9 1022.9 0.0
24/02:30am 10.8 5.8 6.6 75 2.0 N 22 26 12 14 1023.0 1023.0 0.0
24/02:00am 10.9 6.0 6.8 76 1.9 NNE 22 26 12 14 1023.5 1023.5 0.0
24/01:30am 10.8 5.5 6.6 75 2.0 N 24 28 13 15 1023.8 1023.8 0.0
24/01:00am 10.8 5.4 6.2 73 2.1 NNE 24 30 13 16 1024.2 1024.2 0.0
24/12:30am 10.8 5.4 6.2 73 2.1 NNE 24 30 13 16 1024.5 1024.5 0.0
24/12:00am 10.9 5.9 6.3 73 2.1 NNE 22 28 12 15 1024.9 1024.9 0.0
 
Date/Time
EDT
Temp
°C
App
Temp
°C
Dew
Point
Rel
Hum
%
Delta-T
°C
Wind Press
QNH
hPa
Press
MSL
hPa
Rain
since 9 am
mm
Dir
 
Spd
km/h
Gust
km/h
Spd
kts
Gust
kts
23/11:30pm 11.1 5.8 6.6 74 2.1 NNE 24 28 13 15 1024.9 1024.9 0.0
23/11:00pm 11.3 5.6 6.6 73 2.2 NNE 26 32 14 17 1025.0 1025.0 0.0
23/10:30pm 11.4 6.1 6.9 74 2.1 NNE 24 30 13 16 1025.1 1025.1 0.0
23/10:00pm 11.5 5.4 6.6 72 2.3 NE 28 33 15 18 1025.1 1025.1 0.0
23/09:30pm 11.6 4.8 6.7 72 2.3 NE 32 37 17 20 1025.4 1025.4 0.0
23/09:00pm 11.6 6.3 6.7 72 2.3 NE 24 30 13 16 1025.7 1025.7 0.0
23/08:30pm 11.6 6.6 6.5 71 2.4 NE 22 28 12 15 1025.5 1025.5 0.0
23/08:00pm 11.9 6.6 6.6 70 2.5 NE 24 28 13 15 1025.6 1025.6 0.0
23/07:30pm 12.1 7.1 6.6 69 2.6 ENE 22 26 12 14 1025.7 1025.7 0.0
23/07:00pm 12.7 8.3 7.2 69 2.6 ENE 20 24 11 13 1025.6 1025.6 0.0
23/06:30pm 13.1 8.5 6.7 65 3.1 ENE 20 24 11 13 1025.3 1025.3 0.0
23/06:00pm 13.6 10.4 6.7 63 3.3 E 13 20 7 11 1025.4 1025.4 0.0

Other Formats:

Comma delimited format used in spreadsheet applications
http://www.bom.gov.au/fwo/IDT60801/IDT60801.94988.axf

JavaScript Object Notation format (JSON) in row-major order
http://www.bom.gov.au/fwo/IDT60801/IDT60801.94988.json